sensor_id;sensor_type;location;lat;lon;timestamp;pressure;altitude;pressure_sealevel;temperature;humidity
6204;BME280;3135;42.602;23.468;2023-05-14T00:00:58;93168.50;;;11.71;95.65
6204;BME280;3135;42.602;23.468;2023-05-14T00:03:24;93144.28;;;11.39;97.77
6204;BME280;3135;42.602;23.468;2023-05-14T00:05:49;93140.53;;;11.40;96.36
6204;BME280;3135;42.602;23.468;2023-05-14T00:08:15;93131.09;;;11.42;95.85
6204;BME280;3135;42.602;23.468;2023-05-14T00:10:41;93153.88;;;11.64;95.55
6204;BME280;3135;42.602;23.468;2023-05-14T00:13:06;93139.59;;;11.49;96.74
6204;BME280;3135;42.602;23.468;2023-05-14T00:15:31;93143.34;;;11.72;95.72
6204;BME280;3135;42.602;23.468;2023-05-14T00:17:57;93132.63;;;11.72;94.83
6204;BME280;3135;42.602;23.468;2023-05-14T00:20:22;93118.25;;;11.44;95.84
6204;BME280;3135;42.602;23.468;2023-05-14T00:22:48;93125.22;;;11.64;95.81
6204;BME280;3135;42.602;23.468;2023-05-14T00:25:13;93134.00;;;11.70;94.91
6204;BME280;3135;42.602;23.468;2023-05-14T00:27:39;93131.94;;;11.62;96.50
6204;BME280;3135;42.602;23.468;2023-05-14T00:30:05;93131.78;;;11.77;96.19
6204;BME280;3135;42.602;23.468;2023-05-14T00:32:33;93115.44;;;11.55;97.21
6204;BME280;3135;42.602;23.468;2023-05-14T00:34:59;93117.63;;;11.71;95.61
6204;BME280;3135;42.602;23.468;2023-05-14T00:37:27;93118.75;;;11.46;97.13
6204;BME280;3135;42.602;23.468;2023-05-14T00:39:52;93101.69;;;11.18;97.33
6204;BME280;3135;42.602;23.468;2023-05-14T00:42:17;93104.41;;;11.13;98.81
6204;BME280;3135;42.602;23.468;2023-05-14T00:44:43;93115.06;;;11.18;98.33
6204;BME280;3135;42.602;23.468;2023-05-14T00:47:08;93101.19;;;10.92;100.00
6204;BME280;3135;42.602;23.468;2023-05-14T00:49:34;93094.81;;;10.88;100.00
6204;BME280;3135;42.602;23.468;2023-05-14T00:52:00;93095.25;;;10.95;99.64
6204;BME280;3135;42.602;23.468;2023-05-14T00:54:26;93102.38;;;11.05;99.44
6204;BME280;3135;42.602;23.468;2023-05-14T00:56:52;93106.72;;;11.01;98.98
6204;BME280;3135;42.602;23.468;2023-05-14T00:59:19;93090.75;;;10.91;100.00
6204;BME280;3135;42.602;23.468;2023-05-14T01:01:44;93100.16;;;10.88;100.00
6204;BME280;3135;42.602;23.468;2023-05-14T01:04:10;93121.91;;;10.77;100.00
6204;BME280;3135;42.602;23.468;2023-05-14T01:09:50;93092.25;;;10.78;100.00
6204;BME280;3135;42.602;23.468;2023-05-14T01:17:27;93088.59;;;10.69;100.00
6204;BME280;3135;42.602;23.468;2023-05-14T01:19:54;93094.56;;;10.85;99.14
6204;BME280;3135;42.602;23.468;2023-05-14T01:22:20;93099.34;;;10.88;98.85
6204;BME280;3135;42.602;23.468;2023-05-14T01:24:46;93102.81;;;10.88;99.39
6204;BME280;3135;42.602;23.468;2023-05-14T01:27:34;93114.22;;;10.99;98.31
6204;BME280;3135;42.602;23.468;2023-05-14T01:32:33;93122.16;;;10.80;96.52
6204;BME280;3135;42.602;23.468;2023-05-14T01:35:00;93126.94;;;10.83;98.05
6204;BME280;3135;42.602;23.468;2023-05-14T01:37:27;93118.19;;;10.78;99.72
6204;BME280;3135;42.602;23.468;2023-05-14T01:39:54;93124.06;;;10.74;100.00
6204;BME280;3135;42.602;23.468;2023-05-14T01:42:20;93116.38;;;10.68;100.00
6204;BME280;3135;42.602;23.468;2023-05-14T01:44:47;93118.72;;;10.74;98.94
6204;BME280;3135;42.602;23.468;2023-05-14T01:47:12;93128.94;;;10.67;100.00
6204;BME280;3135;42.602;23.468;2023-05-14T01:49:38;93138.94;;;10.86;99.58
6204;BME280;3135;42.602;23.468;2023-05-14T01:52:03;93123.47;;;10.83;99.52
6204;BME280;3135;42.602;23.468;2023-05-14T01:54:29;93128.78;;;10.88;100.00
6204;BME280;3135;42.602;23.468;2023-05-14T01:56:54;93128.72;;;10.93;99.65
6204;BME280;3135;42.602;23.468;2023-05-14T01:59:20;93143.63;;;10.70;100.00
6204;BME280;3135;42.602;23.468;2023-05-14T02:01:45;93126.22;;;10.43;100.00
6204;BME280;3135;42.602;23.468;2023-05-14T02:04:10;93133.13;;;10.49;100.00
6204;BME280;3135;42.602;23.468;2023-05-14T02:06:36;93138.56;;;10.34;100.00
6204;BME280;3135;42.602;23.468;2023-05-14T02:09:02;93141.91;;;10.55;100.00
6204;BME280;3135;42.602;23.468;2023-05-14T02:11:27;93133.28;;;10.63;100.00
6204;BME280;3135;42.602;23.468;2023-05-14T02:13:53;93146.81;;;10.38;100.00
6204;BME280;3135;42.602;23.468;2023-05-14T02:16:18;93142.13;;;10.24;100.00
6204;BME280;3135;42.602;23.468;2023-05-14T02:18:43;93141.31;;;10.24;100.00
6204;BME280;3135;42.602;23.468;2023-05-14T02:21:09;93123.63;;;10.33;100.00
6204;BME280;3135;42.602;23.468;2023-05-14T02:23:34;93120.78;;;10.14;100.00
6204;BME280;3135;42.602;23.468;2023-05-14T02:26:00;93147.31;;;10.01;100.00
6204;BME280;3135;42.602;23.468;2023-05-14T02:28:25;93141.78;;;9.87;100.00
6204;BME280;3135;42.602;23.468;2023-05-14T02:30:51;93134.91;;;9.81;100.00
6204;BME280;3135;42.602;23.468;2023-05-14T02:33:16;93130.06;;;9.83;100.00
6204;BME280;3135;42.602;23.468;2023-05-14T02:35:41;93115.59;;;9.94;100.00
6204;BME280;3135;42.602;23.468;2023-05-14T02:38:07;93118.84;;;9.86;100.00
6204;BME280;3135;42.602;23.468;2023-05-14T02:40:32;93132.13;;;9.96;100.00
6204;BME280;3135;42.602;23.468;2023-05-14T02:42:58;93138.91;;;10.22;100.00
6204;BME280;3135;42.602;23.468;2023-05-14T02:45:23;93128.50;;;10.26;100.00
6204;BME280;3135;42.602;23.468;2023-05-14T02:47:49;93126.59;;;10.32;100.00
6204;BME280;3135;42.602;23.468;2023-05-14T02:50:14;93138.91;;;10.28;100.00
6204;BME280;3135;42.602;23.468;2023-05-14T02:52:40;93149.16;;;10.05;100.00
6204;BME280;3135;42.602;23.468;2023-05-14T02:55:06;93155.09;;;9.92;100.00
6204;BME280;3135;42.602;23.468;2023-05-14T02:57:31;93134.19;;;10.09;100.00
6204;BME280;3135;42.602;23.468;2023-05-14T02:59:56;93155.16;;;10.31;100.00
6204;BME280;3135;42.602;23.468;2023-05-14T03:02:22;93157.38;;;10.14;100.00
6204;BME280;3135;42.602;23.468;2023-05-14T03:04:47;93148.63;;;10.08;100.00
6204;BME280;3135;42.602;23.468;2023-05-14T03:07:13;93142.41;;;9.79;100.00
6204;BME280;3135;42.602;23.468;2023-05-14T03:09:38;93141.41;;;9.59;100.00
6204;BME280;3135;42.602;23.468;2023-05-14T03:12:03;93133.72;;;9.47;100.00
6204;BME280;3135;42.602;23.468;2023-05-14T03:14:29;93136.06;;;9.59;100.00
6204;BME280;3135;42.602;23.468;2023-05-14T03:16:55;93111.94;;;9.80;100.00
6204;BME280;3135;42.602;23.468;2023-05-14T03:19:20;93123.91;;;9.87;100.00
6204;BME280;3135;42.602;23.468;2023-05-14T03:21:45;93121.47;;;9.91;100.00
6204;BME280;3135;42.602;23.468;2023-05-14T03:24:11;93091.91;;;9.82;100.00
6204;BME280;3135;42.602;23.468;2023-05-14T03:26:36;93105.38;;;9.62;100.00
6204;BME280;3135;42.602;23.468;2023-05-14T03:29:02;93095.22;;;9.64;100.00
6204;BME280;3135;42.602;23.468;2023-05-14T03:31:28;93086.13;;;9.15;100.00
6204;BME280;3135;42.602;23.468;2023-05-14T03:33:53;93103.16;;;9.25;100.00
6204;BME280;3135;42.602;23.468;2023-05-14T03:36:19;93121.22;;;9.38;100.00
6204;BME280;3135;42.602;23.468;2023-05-14T03:38:44;93116.53;;;9.14;100.00
6204;BME280;3135;42.602;23.468;2023-05-14T03:41:10;93117.09;;;8.96;100.00
6204;BME280;3135;42.602;23.468;2023-05-14T03:43:35;93089.94;;;8.99;100.00
6204;BME280;3135;42.602;23.468;2023-05-14T03:46:01;93092.59;;;8.94;100.00
6204;BME280;3135;42.602;23.468;2023-05-14T03:48:26;93099.25;;;8.96;100.00
6204;BME280;3135;42.602;23.468;2023-05-14T03:50:51;93109.41;;;8.94;100.00
6204;BME280;3135;42.602;23.468;2023-05-14T03:53:17;93114.13;;;9.08;100.00
6204;BME280;3135;42.602;23.468;2023-05-14T03:55:42;93108.59;;;8.94;100.00
6204;BME280;3135;42.602;23.468;2023-05-14T03:58:08;93106.47;;;8.86;100.00
6204;BME280;3135;42.602;23.468;2023-05-14T04:00:40;93104.84;;;9.00;100.00
6204;BME280;3135;42.602;23.468;2023-05-14T04:03:05;93119.22;;;9.09;100.00
6204;BME280;3135;42.602;23.468;2023-05-14T04:05:32;93111.47;;;9.13;100.00
6204;BME280;3135;42.602;23.468;2023-05-14T04:07:57;93105.31;;;9.23;100.00
6204;BME280;3135;42.602;23.468;2023-05-14T04:10:22;93109.59;;;9.18;100.00
6204;BME280;3135;42.602;23.468;2023-05-14T04:12:48;93121.88;;;9.09;100.00
6204;BME280;3135;42.602;23.468;2023-05-14T04:15:13;93139.72;;;9.14;100.00
6204;BME280;3135;42.602;23.468;2023-05-14T04:17:39;93122.38;;;9.11;100.00
6204;BME280;3135;42.602;23.468;2023-05-14T04:20:05;93136.75;;;9.26;100.00
6204;BME280;3135;42.602;23.468;2023-05-14T04:22:30;93134.88;;;9.21;100.00
6204;BME280;3135;42.602;23.468;2023-05-14T04:24:56;93126.63;;;9.28;100.00
6204;BME280;3135;42.602;23.468;2023-05-14T04:27:21;93143.66;;;9.27;100.00
6204;BME280;3135;42.602;23.468;2023-05-14T04:29:48;93126.13;;;9.15;100.00
6204;BME280;3135;42.602;23.468;2023-05-14T04:32:14;93150.84;;;9.31;100.00
6204;BME280;3135;42.602;23.468;2023-05-14T04:34:39;93143.66;;;9.27;100.00
6204;BME280;3135;42.602;23.468;2023-05-14T04:37:05;93134.09;;;9.20;100.00
6204;BME280;3135;42.602;23.468;2023-05-14T04:39:30;93151.44;;;9.23;100.00
6204;BME280;3135;42.602;23.468;2023-05-14T04:41:56;93147.97;;;9.23;100.00
6204;BME280;3135;42.602;23.468;2023-05-14T04:44:21;93163.44;;;9.20;100.00
6204;BME280;3135;42.602;23.468;2023-05-14T04:46:47;93166.06;;;9.26;100.00
6204;BME280;3135;42.602;23.468;2023-05-14T04:49:12;93151.69;;;9.21;100.00
6204;BME280;3135;42.602;23.468;2023-05-14T04:51:38;93146.91;;;9.18;100.00
6204;BME280;3135;42.602;23.468;2023-05-14T04:54:03;93150.66;;;9.07;100.00
6204;BME280;3135;42.602;23.468;2023-05-14T04:56:28;93149.09;;;8.96;100.00
6204;BME280;3135;42.602;23.468;2023-05-14T04:58:54;93157.09;;;8.96;100.00
6204;BME280;3135;42.602;23.468;2023-05-14T05:01:19;93163.53;;;8.85;100.00
6204;BME280;3135;42.602;23.468;2023-05-14T05:03:46;93154.72;;;8.79;100.00
6204;BME280;3135;42.602;23.468;2023-05-14T05:06:11;93162.44;;;8.65;100.00
6204;BME280;3135;42.602;23.468;2023-05-14T05:25:52;93169.34;;;8.20;100.00
6204;BME280;3135;42.602;23.468;2023-05-14T05:28:17;93186.66;;;8.13;100.00
6204;BME280;3135;42.602;23.468;2023-05-14T05:30:43;93198.09;;;8.13;100.00
6204;BME280;3135;42.602;23.468;2023-05-14T05:33:10;93209.56;;;8.19;100.00
6204;BME280;3135;42.602;23.468;2023-05-14T05:35:35;93211.69;;;8.17;100.00
6204;BME280;3135;42.602;23.468;2023-05-14T05:38:01;93198.63;;;8.00;100.00
6204;BME280;3135;42.602;23.468;2023-05-14T05:40:26;93201.25;;;7.95;100.00
6204;BME280;3135;42.602;23.468;2023-05-14T05:42:52;93227.34;;;8.03;100.00
6204;BME280;3135;42.602;23.468;2023-05-14T05:45:17;93212.94;;;7.89;100.00
6204;BME280;3135;42.602;23.468;2023-05-14T05:47:43;93197.53;;;7.91;100.00
6204;BME280;3135;42.602;23.468;2023-05-14T05:50:09;93194.63;;;7.98;100.00
6204;BME280;3135;42.602;23.468;2023-05-14T05:52:35;93196.97;;;7.84;100.00
6204;BME280;3135;42.602;23.468;2023-05-14T05:55:00;93218.25;;;7.79;100.00
6204;BME280;3135;42.602;23.468;2023-05-14T05:57:26;93212.59;;;7.65;100.00
6204;BME280;3135;42.602;23.468;2023-05-14T05:59:52;93227.03;;;7.79;100.00
6204;BME280;3135;42.602;23.468;2023-05-14T06:02:18;93229.41;;;7.81;100.00
6204;BME280;3135;42.602;23.468;2023-05-14T06:04:44;93213.91;;;7.57;100.00
6204;BME280;3135;42.602;23.468;2023-05-14T06:07:09;93217.75;;;7.87;100.00
6204;BME280;3135;42.602;23.468;2023-05-14T06:09:34;93203.88;;;7.85;100.00
6204;BME280;3135;42.602;23.468;2023-05-14T06:12:00;93216.34;;;7.69;100.00
6204;BME280;3135;42.602;23.468;2023-05-14T06:14:25;93211.84;;;7.75;100.00
6204;BME280;3135;42.602;23.468;2023-05-14T06:16:51;93210.56;;;7.92;100.00
6204;BME280;3135;42.602;23.468;2023-05-14T06:19:16;93216.66;;;7.78;100.00
6204;BME280;3135;42.602;23.468;2023-05-14T06:21:42;93197.69;;;7.59;100.00
6204;BME280;3135;42.602;23.468;2023-05-14T06:24:07;93187.34;;;7.67;100.00
6204;BME280;3135;42.602;23.468;2023-05-14T06:26:33;93196.94;;;7.74;100.00
6204;BME280;3135;42.602;23.468;2023-05-14T06:28:58;93190.81;;;7.63;100.00
6204;BME280;3135;42.602;23.468;2023-05-14T06:31:23;93190.19;;;7.46;100.00
6204;BME280;3135;42.602;23.468;2023-05-14T06:33:49;93174.19;;;7.35;100.00
6204;BME280;3135;42.602;23.468;2023-05-14T06:36:14;93160.88;;;7.25;100.00
6204;BME280;3135;42.602;23.468;2023-05-14T06:38:40;93182.91;;;7.21;100.00
6204;BME280;3135;42.602;23.468;2023-05-14T06:41:05;93174.88;;;7.10;100.00
6204;BME280;3135;42.602;23.468;2023-05-14T06:43:30;93182.34;;;7.18;100.00
6204;BME280;3135;42.602;23.468;2023-05-14T06:45:56;93189.66;;;7.43;100.00
6204;BME280;3135;42.602;23.468;2023-05-14T06:48:21;93195.47;;;7.35;100.00
6204;BME280;3135;42.602;23.468;2023-05-14T06:50:47;93217.88;;;7.55;100.00
6204;BME280;3135;42.602;23.468;2023-05-14T06:53:13;93212.34;;;7.66;100.00
6204;BME280;3135;42.602;23.468;2023-05-14T06:55:38;93193.66;;;7.51;100.00
6204;BME280;3135;42.602;23.468;2023-05-14T06:58:07;93170.81;;;7.50;100.00
6204;BME280;3135;42.602;23.468;2023-05-14T07:00:33;93182.53;;;7.59;100.00
6204;BME280;3135;42.602;23.468;2023-05-14T07:02:58;93187.91;;;7.75;100.00
6204;BME280;3135;42.602;23.468;2023-05-14T07:05:24;93184.94;;;7.71;100.00
6204;BME280;3135;42.602;23.468;2023-05-14T07:07:49;93184.63;;;7.57;100.00
6204;BME280;3135;42.602;23.468;2023-05-14T07:10:15;93161.22;;;7.44;100.00
6204;BME280;3135;42.602;23.468;2023-05-14T07:12:40;93170.00;;;7.50;100.00
6204;BME280;3135;42.602;23.468;2023-05-14T07:15:06;93180.97;;;7.63;100.00
6204;BME280;3135;42.602;23.468;2023-05-14T07:17:32;93167.38;;;7.60;100.00
6204;BME280;3135;42.602;23.468;2023-05-14T07:19:57;93195.41;;;7.93;100.00
6204;BME280;3135;42.602;23.468;2023-05-14T07:22:23;93189.53;;;7.86;100.00
6204;BME280;3135;42.602;23.468;2023-05-14T07:24:48;93204.16;;;7.88;100.00
6204;BME280;3135;42.602;23.468;2023-05-14T07:27:14;93211.31;;;7.73;100.00
6204;BME280;3135;42.602;23.468;2023-05-14T07:29:41;93237.44;;;7.86;100.00
6204;BME280;3135;42.602;23.468;2023-05-14T07:32:07;93205.69;;;7.64;100.00
6204;BME280;3135;42.602;23.468;2023-05-14T07:34:32;93204.31;;;7.51;100.00
6204;BME280;3135;42.602;23.468;2023-05-14T07:36:58;93225.53;;;7.41;100.00
6204;BME280;3135;42.602;23.468;2023-05-14T07:39:23;93205.28;;;7.30;100.00
6204;BME280;3135;42.602;23.468;2023-05-14T07:41:49;93212.47;;;7.29;100.00
6204;BME280;3135;42.602;23.468;2023-05-14T07:44:15;93205.81;;;7.32;100.00
6204;BME280;3135;42.602;23.468;2023-05-14T07:46:41;93210.09;;;7.38;100.00
6204;BME280;3135;42.602;23.468;2023-05-14T07:49:06;93201.00;;;7.29;100.00
6204;BME280;3135;42.602;23.468;2023-05-14T07:51:32;93202.06;;;7.28;100.00
6204;BME280;3135;42.602;23.468;2023-05-14T07:53:57;93213.31;;;7.45;100.00
6204;BME280;3135;42.602;23.468;2023-05-14T07:56:23;93231.34;;;7.38;100.00
6204;BME280;3135;42.602;23.468;2023-05-14T07:58:49;93221.75;;;7.27;100.00
6204;BME280;3135;42.602;23.468;2023-05-14T08:01:15;93224.38;;;7.22;100.00
6204;BME280;3135;42.602;23.468;2023-05-14T08:03:41;93223.38;;;7.38;100.00
6204;BME280;3135;42.602;23.468;2023-05-14T08:06:06;93217.50;;;7.26;100.00
6204;BME280;3135;42.602;23.468;2023-05-14T08:08:31;93204.72;;;7.28;100.00
6204;BME280;3135;42.602;23.468;2023-05-14T08:10:57;93201.03;;;7.34;100.00
6204;BME280;3135;42.602;23.468;2023-05-14T08:13:22;93195.19;;;7.32;100.00
6204;BME280;3135;42.602;23.468;2023-05-14T08:15:48;93196.56;;;7.39;100.00
6204;BME280;3135;42.602;23.468;2023-05-14T08:18:13;93201.59;;;7.41;100.00
6204;BME280;3135;42.602;23.468;2023-05-14T08:20:39;93185.59;;;7.26;100.00
6204;BME280;3135;42.602;23.468;2023-05-14T08:23:04;93207.72;;;7.41;100.00
6204;BME280;3135;42.602;23.468;2023-05-14T08:25:31;93225.63;;;7.61;100.00
6204;BME280;3135;42.602;23.468;2023-05-14T08:27:57;93180.34;;;7.41;100.00
6204;BME280;3135;42.602;23.468;2023-05-14T08:30:24;93205.13;;;7.57;100.00
6204;BME280;3135;42.602;23.468;2023-05-14T08:32:49;93206.75;;;7.63;100.00
6204;BME280;3135;42.602;23.468;2023-05-14T08:35:16;93193.72;;;7.66;100.00
6204;BME280;3135;42.602;23.468;2023-05-14T08:37:41;93198.03;;;7.78;100.00
6204;BME280;3135;42.602;23.468;2023-05-14T08:40:07;93205.47;;;7.81;100.00
6204;BME280;3135;42.602;23.468;2023-05-14T08:42:33;93193.00;;;7.81;100.00
6204;BME280;3135;42.602;23.468;2023-05-14T08:45:02;93207.09;;;7.82;100.00
6204;BME280;3135;42.602;23.468;2023-05-14T08:47:30;93190.81;;;7.68;100.00
6204;BME280;3135;42.602;23.468;2023-05-14T08:50:05;93187.38;;;7.78;100.00
6204;BME280;3135;42.602;23.468;2023-05-14T08:52:33;93170.03;;;7.60;100.00
6204;BME280;3135;42.602;23.468;2023-05-14T08:55:01;93186.09;;;8.01;100.00
6204;BME280;3135;42.602;23.468;2023-05-14T08:57:29;93187.41;;;7.93;100.00
6204;BME280;3135;42.602;23.468;2023-05-14T08:59:55;93189.84;;;8.10;100.00
6204;BME280;3135;42.602;23.468;2023-05-14T09:02:27;93154.91;;;7.71;100.00
6204;BME280;3135;42.602;23.468;2023-05-14T09:04:56;93197.00;;;8.04;100.00
6204;BME280;3135;42.602;23.468;2023-05-14T09:07:22;93187.94;;;7.90;100.00
6204;BME280;3135;42.602;23.468;2023-05-14T09:09:48;93177.25;;;7.75;100.00
6204;BME280;3135;42.602;23.468;2023-05-14T09:12:14;93182.06;;;7.73;100.00
6204;BME280;3135;42.602;23.468;2023-05-14T09:14:40;93162.84;;;7.60;100.00
6204;BME280;3135;42.602;23.468;2023-05-14T09:17:05;93184.44;;;7.69;100.00
6204;BME280;3135;42.602;23.468;2023-05-14T09:19:32;93172.22;;;7.73;100.00
6204;BME280;3135;42.602;23.468;2023-05-14T09:21:57;93162.81;;;7.50;100.00
6204;BME280;3135;42.602;23.468;2023-05-14T09:24:26;93168.72;;;7.62;100.00
6204;BME280;3135;42.602;23.468;2023-05-14T09:26:56;93183.66;;;7.84;100.00
6204;BME280;3135;42.602;23.468;2023-05-14T09:29:26;93180.00;;;8.00;100.00
6204;BME280;3135;42.602;23.468;2023-05-14T09:31:53;93172.78;;;7.90;100.00
6204;BME280;3135;42.602;23.468;2023-05-14T09:34:23;93151.75;;;7.99;100.00
6204;BME280;3135;42.602;23.468;2023-05-14T09:36:48;93156.03;;;8.10;100.00
6204;BME280;3135;42.602;23.468;2023-05-14T09:39:14;93148.06;;;8.10;100.00
6204;BME280;3135;42.602;23.468;2023-05-14T09:41:40;93175.16;;;7.87;100.00
6204;BME280;3135;42.602;23.468;2023-05-14T09:44:05;93174.09;;;7.83;100.00
6204;BME280;3135;42.602;23.468;2023-05-14T09:46:31;93171.19;;;8.00;100.00
6204;BME280;3135;42.602;23.468;2023-05-14T09:48:57;93149.88;;;7.79;100.00
6204;BME280;3135;42.602;23.468;2023-05-14T09:51:23;93130.97;;;7.81;100.00
6204;BME280;3135;42.602;23.468;2023-05-14T09:53:51;93118.75;;;7.85;100.00
6204;BME280;3135;42.602;23.468;2023-05-14T09:56:17;93120.88;;;7.83;100.00
6204;BME280;3135;42.602;23.468;2023-05-14T09:58:43;93124.59;;;7.82;100.00
6204;BME280;3135;42.602;23.468;2023-05-14T10:01:08;93144.31;;;7.86;100.00
6204;BME280;3135;42.602;23.468;2023-05-14T10:03:34;93134.72;;;7.95;100.00
6204;BME280;3135;42.602;23.468;2023-05-14T10:06:03;93137.91;;;7.92;100.00
6204;BME280;3135;42.602;23.468;2023-05-14T10:08:33;93141.66;;;7.96;100.00
6204;BME280;3135;42.602;23.468;2023-05-14T10:11:01;93114.50;;;7.84;100.00
6204;BME280;3135;42.602;23.468;2023-05-14T10:13:30;93133.13;;;7.94;100.00
6204;BME280;3135;42.602;23.468;2023-05-14T10:19:01;93131.03;;;8.06;100.00
6204;BME280;3135;42.602;23.468;2023-05-14T10:21:31;93115.84;;;8.02;100.00
6204;BME280;3135;42.602;23.468;2023-05-14T10:23:58;93109.72;;;8.06;100.00
6204;BME280;3135;42.602;23.468;2023-05-14T10:26:24;93103.31;;;8.23;100.00
6204;BME280;3135;42.602;23.468;2023-05-14T10:28:49;93094.28;;;7.98;100.00
6204;BME280;3135;42.602;23.468;2023-05-14T10:31:15;93107.34;;;8.25;100.00
6204;BME280;3135;42.602;23.468;2023-05-14T10:33:50;93096.94;;;8.34;100.00
6204;BME280;3135;42.602;23.468;2023-05-14T10:36:17;93110.28;;;8.24;100.00
6204;BME280;3135;42.602;23.468;2023-05-14T10:38:43;93120.91;;;8.29;100.00
6204;BME280;3135;42.602;23.468;2023-05-14T10:41:10;93113.16;;;8.32;100.00
6204;BME280;3135;42.602;23.468;2023-05-14T10:43:38;93111.31;;;8.28;100.00
6204;BME280;3135;42.602;23.468;2023-05-14T10:46:05;93120.66;;;8.40;100.00
6204;BME280;3135;42.602;23.468;2023-05-14T10:48:31;93107.91;;;8.42;100.00
6204;BME280;3135;42.602;23.468;2023-05-14T10:50:58;93115.84;;;8.37;100.00
6204;BME280;3135;42.602;23.468;2023-05-14T10:53:40;93123.56;;;8.08;100.00
6204;BME280;3135;42.602;23.468;2023-05-14T10:56:08;93117.44;;;8.08;100.00
6204;BME280;3135;42.602;23.468;2023-05-14T10:58:35;93117.16;;;7.84;100.00
6204;BME280;3135;42.602;23.468;2023-05-14T11:01:01;93117.19;;;8.09;100.00
6204;BME280;3135;42.602;23.468;2023-05-14T11:03:30;93106.78;;;8.18;100.00
6204;BME280;3135;42.602;23.468;2023-05-14T11:05:56;93094.56;;;8.37;100.00
6204;BME280;3135;42.602;23.468;2023-05-14T11:08:22;93053.81;;;8.11;100.00
6204;BME280;3135;42.602;23.468;2023-05-14T11:10:50;93077.78;;;8.11;100.00
6204;BME280;3135;42.602;23.468;2023-05-14T11:13:18;93085.50;;;8.18;100.00
6204;BME280;3135;42.602;23.468;2023-05-14T11:15:44;93082.31;;;8.16;100.00
6204;BME280;3135;42.602;23.468;2023-05-14T11:18:12;93098.56;;;8.19;100.00
6204;BME280;3135;42.602;23.468;2023-05-14T11:20:38;93103.59;;;8.26;100.00
6204;BME280;3135;42.602;23.468;2023-05-14T11:23:03;93096.69;;;8.15;100.00
6204;BME280;3135;42.602;23.468;2023-05-14T11:25:29;93094.78;;;7.95;100.00
6204;BME280;3135;42.602;23.468;2023-05-14T11:27:54;93088.94;;;8.08;100.00
6204;BME280;3135;42.602;23.468;2023-05-14T11:30:23;93092.16;;;8.26;100.00
6204;BME280;3135;42.602;23.468;2023-05-14T11:32:49;93099.88;;;8.27;100.00
6204;BME280;3135;42.602;23.468;2023-05-14T11:35:15;93099.63;;;8.44;100.00
6204;BME280;3135;42.602;23.468;2023-05-14T11:37:42;93096.69;;;8.45;100.00
6204;BME280;3135;42.602;23.468;2023-05-14T11:40:14;93093.50;;;8.54;100.00
6204;BME280;3135;42.602;23.468;2023-05-14T11:42:40;93104.38;;;8.73;100.00
6204;BME280;3135;42.602;23.468;2023-05-14T11:45:09;93101.94;;;8.86;100.00
6204;BME280;3135;42.602;23.468;2023-05-14T11:47:36;93091.34;;;8.45;100.00
6204;BME280;3135;42.602;23.468;2023-05-14T11:50:01;93103.34;;;8.48;100.00
6204;BME280;3135;42.602;23.468;2023-05-14T11:52:27;93088.97;;;8.34;100.00
6204;BME280;3135;42.602;23.468;2023-05-14T11:54:53;93076.19;;;8.41;100.00
6204;BME280;3135;42.602;23.468;2023-05-14T11:57:20;93107.03;;;8.78;100.00
6204;BME280;3135;42.602;23.468;2023-05-14T11:59:47;93095.03;;;8.70;100.00
6204;BME280;3135;42.602;23.468;2023-05-14T12:02:17;93076.19;;;8.56;100.00
6204;BME280;3135;42.602;23.468;2023-05-14T12:04:44;93089.50;;;8.61;100.00
6204;BME280;3135;42.602;23.468;2023-05-14T12:07:16;93050.00;;;8.74;100.00
6204;BME280;3135;42.602;23.468;2023-05-14T12:09:44;93072.09;;;8.94;100.00
6204;BME280;3135;42.602;23.468;2023-05-14T12:12:21;93059.81;;;8.93;100.00
6204;BME280;3135;42.602;23.468;2023-05-14T12:14:48;93021.81;;;8.67;100.00
6204;BME280;3135;42.602;23.468;2023-05-14T12:17:16;93076.06;;;8.97;100.00
6204;BME280;3135;42.602;23.468;2023-05-14T12:19:43;93070.50;;;8.83;100.00
6204;BME280;3135;42.602;23.468;2023-05-14T12:22:13;93054.19;;;9.00;100.00
6204;BME280;3135;42.602;23.468;2023-05-14T12:24:39;93053.13;;;9.01;100.00
6204;BME280;3135;42.602;23.468;2023-05-14T12:27:06;93070.94;;;9.11;100.00
6204;BME280;3135;42.602;23.468;2023-05-14T12:29:36;93064.81;;;9.10;100.00
6204;BME280;3135;42.602;23.468;2023-05-14T12:32:06;93051.03;;;8.88;100.00
6204;BME280;3135;42.602;23.468;2023-05-14T12:34:34;93039.34;;;8.79;100.00
6204;BME280;3135;42.602;23.468;2023-05-14T12:36:59;93045.22;;;8.76;100.00
6204;BME280;3135;42.602;23.468;2023-05-14T12:39:25;93025.75;;;8.85;100.00
6204;BME280;3135;42.602;23.468;2023-05-14T12:41:50;93023.94;;;8.70;100.00
6204;BME280;3135;42.602;23.468;2023-05-14T12:44:16;93000.72;;;8.76;100.00
6204;BME280;3135;42.602;23.468;2023-05-14T12:46:41;93014.28;;;8.80;100.00
6204;BME280;3135;42.602;23.468;2023-05-14T12:49:07;93029.22;;;8.81;100.00
6204;BME280;3135;42.602;23.468;2023-05-14T12:51:33;93006.88;;;8.66;100.00
6204;BME280;3135;42.602;23.468;2023-05-14T12:53:58;93001.31;;;8.63;100.00
6204;BME280;3135;42.602;23.468;2023-05-14T12:56:23;93014.63;;;8.63;100.00
6204;BME280;3135;42.602;23.468;2023-05-14T12:58:54;92991.44;;;8.63;100.00
6204;BME280;3135;42.602;23.468;2023-05-14T13:01:19;92987.78;;;8.44;100.00
6204;BME280;3135;42.602;23.468;2023-05-14T13:03:45;93006.06;;;8.71;100.00
6204;BME280;3135;42.602;23.468;2023-05-14T13:06:11;93004.50;;;8.60;100.00
6204;BME280;3135;42.602;23.468;2023-05-14T13:08:36;93024.97;;;8.69;100.00
6204;BME280;3135;42.602;23.468;2023-05-14T13:11:02;93004.78;;;8.58;100.00
6204;BME280;3135;42.602;23.468;2023-05-14T13:13:27;93002.69;;;8.35;100.00
6204;BME280;3135;42.602;23.468;2023-05-14T13:15:53;93013.59;;;8.33;100.00
6204;BME280;3135;42.602;23.468;2023-05-14T13:18:19;93009.84;;;8.50;100.00
6204;BME280;3135;42.602;23.468;2023-05-14T13:20:45;92995.22;;;8.42;100.00
6204;BME280;3135;42.602;23.468;2023-05-14T13:23:12;92996.53;;;8.55;100.00
6204;BME280;3135;42.602;23.468;2023-05-14T13:25:37;92983.25;;;8.39;100.00
6204;BME280;3135;42.602;23.468;2023-05-14T13:28:03;92994.97;;;8.38;100.00
6204;BME280;3135;42.602;23.468;2023-05-14T13:30:28;92983.50;;;8.28;100.00
6204;BME280;3135;42.602;23.468;2023-05-14T13:32:54;92991.50;;;8.28;100.00
6204;BME280;3135;42.602;23.468;2023-05-14T13:35:19;93016.53;;;8.47;100.00